createdAt,value
2023-01-03T00:02:00.705Z,100807.97
2023-01-03T00:04:29.834Z,100831.13
2023-01-03T00:06:56.530Z,100831.41
2023-01-03T00:09:24.699Z,100840.59
2023-01-03T00:12:12.007Z,100844.19
2023-01-03T00:14:42.473Z,100840.87
2023-01-03T00:17:11.070Z,100829.47
2023-01-03T00:19:41.766Z,100835.28
2023-01-03T00:22:09.908Z,100836.44
2023-01-03T00:24:37.034Z,100819.72
2023-01-03T00:27:04.452Z,100825.41
2023-01-03T00:29:31.414Z,100833.34
2023-01-03T00:31:58.512Z,100815.25
2023-01-03T00:34:25.938Z,100814.16
2023-01-03T00:36:52.530Z,100797.97
2023-01-03T00:39:19.501Z,100811.06
2023-01-03T00:41:46.156Z,100809.97
2023-01-03T00:44:13.453Z,100779.03
2023-01-03T00:46:40.505Z,100790.03
2023-01-03T00:49:07.886Z,100786.00
2023-01-03T00:51:38.070Z,100791.69
2023-01-03T00:54:07.044Z,100792.53
2023-01-03T00:56:40.098Z,100790.88
2023-01-03T00:59:07.567Z,100790.16
2023-01-03T01:01:46.644Z,100773.63
2023-01-03T01:04:19.007Z,100772.91
2023-01-03T01:06:49.853Z,100782.09
2023-01-03T01:09:20.351Z,100784.75
2023-01-03T01:11:47.803Z,100769.31
2023-01-03T01:14:21.080Z,100769.03
2023-01-03T01:16:57.110Z,100763.59
2023-01-03T01:19:27.784Z,100754.69
2023-01-03T01:21:55.069Z,100735.87
2023-01-03T01:24:21.703Z,100738.66
2023-01-03T01:26:48.502Z,100731.41
2023-01-03T01:29:16.899Z,100741.31
2023-01-03T01:31:45.473Z,100740.06
2023-01-03T01:34:12.771Z,100721.69
2023-01-03T01:36:42.104Z,100740.06
2023-01-03T01:39:24.569Z,100731.84
2023-01-03T01:42:19.307Z,100727.78
2023-01-03T01:44:54.720Z,100720.09
2023-01-03T01:47:45.734Z,100721.87
2023-01-03T01:50:24.732Z,100717.66
2023-01-03T01:52:57.175Z,100710.53
2023-01-03T01:55:31.029Z,100703.97
2023-01-03T01:57:58.183Z,100706.56
2023-01-03T02:00:24.848Z,100679.25
2023-01-03T02:02:54.124Z,100685.84
2023-01-03T02:05:23.079Z,100689.28
2023-01-03T02:07:51.361Z,100684.50
2023-01-03T02:10:25.336Z,100680.87
2023-01-03T02:13:25.182Z,100670.75
2023-01-03T02:16:13.324Z,100682.94
2023-01-03T02:19:11.643Z,100680.00
2023-01-03T02:22:06.172Z,100678.13
2023-01-03T02:25:07.225Z,100669.41
2023-01-03T02:27:33.807Z,100651.31
2023-01-03T02:30:28.618Z,100662.38
2023-01-03T02:33:21.676Z,100661.38
2023-01-03T02:36:11.365Z,100647.97
2023-01-03T02:39:10.280Z,100647.91
2023-01-03T02:42:15.915Z,100646.31
2023-01-03T02:45:16.246Z,100646.16
2023-01-03T02:47:57.474Z,100644.66
2023-01-03T02:50:29.033Z,100641.72
2023-01-03T02:53:02.746Z,100652.16
2023-01-03T02:55:33.681Z,100626.25
2023-01-03T02:58:11.571Z,100643.44
2023-01-03T03:00:46.016Z,100633.66
2023-01-03T03:03:16.698Z,100620.88
2023-01-03T03:06:15.715Z,100644.63
2023-01-03T03:08:46.160Z,100634.19
2023-01-03T03:11:32.654Z,100618.38
2023-01-03T03:14:14.050Z,100626.75
2023-01-03T03:16:48.561Z,100614.13
2023-01-03T03:19:50.836Z,100623.63
2023-01-03T03:22:48.068Z,100623.63
2023-01-03T03:25:21.243Z,100627.41
2023-01-03T03:28:10.059Z,100628.41
2023-01-03T03:30:40.793Z,100612.12
2023-01-03T03:33:10.307Z,100611.31
2023-01-03T03:35:49.480Z,100610.47
2023-01-03T03:38:21.213Z,100606.16
2023-01-03T03:41:14.609Z,100603.50
2023-01-03T03:44:09.976Z,100598.03
2023-01-03T03:46:50.551Z,100597.34
2023-01-03T03:49:39.303Z,100587.03
2023-01-03T03:52:15.650Z,100597.00
2023-01-03T03:54:48.585Z,100589.97
2023-01-03T03:57:39.122Z,100597.47
2023-01-03T04:00:11.196Z,100590.50
2023-01-03T04:02:40.940Z,100593.97
2023-01-03T04:05:11.066Z,100587.19
2023-01-03T04:07:40.026Z,100587.34
2023-01-03T04:10:09.104Z,100576.03
2023-01-03T04:12:35.997Z,100584.12
2023-01-03T04:15:03.939Z,100576.34
2023-01-03T04:17:30.589Z,100570.53
2023-01-03T04:19:57.503Z,100585.47
2023-01-03T04:22:24.369Z,100589.91
2023-01-03T04:24:50.978Z,100582.06
2023-01-03T04:27:17.853Z,100587.56
2023-01-03T04:29:44.507Z,100589.56
2023-01-03T04:32:11.302Z,100577.28
2023-01-03T04:34:39.404Z,100583.56
2023-01-03T04:37:06.179Z,100561.78
2023-01-03T04:39:32.875Z,100574.94
2023-01-03T04:42:01.496Z,100571.47
2023-01-03T04:44:28.583Z,100569.78
2023-01-03T04:46:55.271Z,100574.28
2023-01-03T04:49:22.153Z,100555.94
2023-01-03T04:51:48.797Z,100555.66
2023-01-03T04:54:15.422Z,100560.62
2023-01-03T04:56:42.351Z,100564.28
2023-01-03T04:59:09.059Z,100560.13
2023-01-03T05:01:35.836Z,100555.78
2023-01-03T05:04:02.910Z,100554.31
2023-01-03T05:06:29.783Z,100553.31
2023-01-03T05:08:56.845Z,100552.31
2023-01-03T05:11:23.831Z,100546.03
2023-01-03T05:13:50.719Z,100541.87
2023-01-03T05:16:17.728Z,100529.56
2023-01-03T05:18:45.150Z,100540.50
2023-01-03T05:21:36.764Z,100537.03
2023-01-03T05:24:23.152Z,100546.94
2023-01-03T05:26:51.453Z,100536.66
2023-01-03T05:29:21.445Z,100552.56
2023-01-03T05:31:48.615Z,100549.09
2023-01-03T05:34:16.059Z,100523.66
2023-01-03T05:36:43.176Z,100528.28
2023-01-03T05:39:09.957Z,100543.28
2023-01-03T05:41:55.487Z,100534.94
2023-01-03T05:44:22.734Z,100542.97
2023-01-03T05:46:49.445Z,100527.12
2023-01-03T05:49:16.165Z,100536.59
2023-01-03T05:51:43.276Z,100541.97
2023-01-03T05:54:15.380Z,100546.94
2023-01-03T05:56:42.704Z,100551.28
2023-01-03T05:59:10.130Z,100541.34
2023-01-03T06:01:37.049Z,100532.25
2023-01-03T06:04:04.223Z,100523.94
2023-01-03T06:06:30.919Z,100538.75
2023-01-03T06:08:57.557Z,100543.91
2023-01-03T06:11:24.469Z,100544.88
2023-01-03T06:13:51.098Z,100545.41
2023-01-03T06:16:38.480Z,100537.31
2023-01-03T06:19:06.679Z,100539.13
2023-01-03T06:21:34.370Z,100541.13
2023-01-03T06:24:01.234Z,100526.91
2023-01-03T06:26:28.167Z,100533.19
2023-01-03T06:28:55.200Z,100525.84
2023-01-03T06:31:22.020Z,100521.25
2023-01-03T06:33:49.005Z,100540.97
2023-01-03T06:36:18.787Z,100540.81
2023-01-03T06:38:45.522Z,100545.16
2023-01-03T06:41:14.140Z,100547.12
2023-01-03T06:43:41.672Z,100563.56
2023-01-03T06:46:29.240Z,100544.97
2023-01-03T06:49:16.045Z,100546.50
2023-01-03T06:52:01.855Z,100526.06
2023-01-03T06:54:34.683Z,100536.72
2023-01-03T06:57:03.476Z,100522.81
2023-01-03T06:59:30.375Z,100551.66
2023-01-03T07:01:57.194Z,100547.50
2023-01-03T07:04:26.765Z,100570.88
2023-01-03T07:06:54.000Z,100562.25
2023-01-03T07:09:20.746Z,100540.53
2023-01-03T07:11:48.495Z,100563.47
2023-01-03T07:14:15.967Z,100568.22
2023-01-03T07:16:46.983Z,100558.94
2023-01-03T07:19:19.065Z,100585.00
2023-01-03T07:21:46.349Z,100579.84
2023-01-03T07:24:16.050Z,100570.00
2023-01-03T07:26:42.783Z,100584.31
2023-01-03T07:29:10.538Z,100586.94
2023-01-03T07:31:41.374Z,100592.78
2023-01-03T07:34:09.205Z,100589.13
2023-01-03T07:36:36.264Z,100590.50
2023-01-03T07:39:03.088Z,100580.50
2023-01-03T07:41:49.723Z,100602.78
2023-01-03T07:44:18.212Z,100602.00
2023-01-03T07:46:45.066Z,100601.69
2023-01-03T07:49:12.609Z,100595.06
2023-01-03T07:51:40.016Z,100591.56
2023-01-03T07:54:07.563Z,100591.09
2023-01-03T07:56:34.740Z,100606.69
2023-01-03T07:59:02.096Z,100592.28
2023-01-03T08:01:30.512Z,100593.44
2023-01-03T08:03:57.845Z,100582.78
2023-01-03T08:06:25.135Z,100587.81
2023-01-03T08:09:11.144Z,100606.37
2023-01-03T08:11:57.630Z,100592.78
2023-01-03T08:14:26.548Z,100589.47
2023-01-03T08:16:55.067Z,100601.06
2023-01-03T08:19:22.238Z,100605.56
2023-01-03T08:21:48.918Z,100610.72
2023-01-03T08:24:15.908Z,100592.78
2023-01-03T08:26:42.622Z,100602.44
2023-01-03T08:29:09.303Z,100613.72
2023-01-03T08:31:41.857Z,100609.91
2023-01-03T08:34:16.824Z,100590.16
2023-01-03T08:36:51.809Z,100599.00
2023-01-03T08:39:24.304Z,100599.69
2023-01-03T08:41:58.341Z,100603.50
2023-01-03T08:44:26.061Z,100604.19
2023-01-03T08:46:55.638Z,100592.22
2023-01-03T08:49:22.695Z,100607.19
2023-01-03T08:51:49.349Z,100583.47
2023-01-03T08:54:16.437Z,100576.16
2023-01-03T08:56:43.095Z,100594.47
2023-01-03T08:59:09.789Z,100601.78
2023-01-03T09:01:36.935Z,100601.31
2023-01-03T09:04:05.594Z,100602.66
2023-01-03T09:06:32.687Z,100592.53
2023-01-03T09:09:07.465Z,100592.91
2023-01-03T09:11:34.432Z,100592.41
2023-01-03T09:14:01.450Z,100584.94
2023-01-03T09:16:28.362Z,100580.94
2023-01-03T09:18:55.136Z,100599.22
2023-01-03T09:21:22.133Z,100577.31
2023-01-03T09:23:48.813Z,100588.28
2023-01-03T09:26:15.458Z,100588.63
2023-01-03T09:28:42.601Z,100586.31
2023-01-03T09:31:09.299Z,100584.19
2023-01-03T09:33:36.018Z,100584.50
2023-01-03T09:36:03.310Z,100583.00
2023-01-03T09:38:30.035Z,100582.84
2023-01-03T09:41:01.330Z,100575.19
2023-01-03T09:43:36.977Z,100575.53
2023-01-03T09:46:06.002Z,100567.41
2023-01-03T09:48:41.069Z,100578.19
2023-01-03T09:51:34.161Z,100556.09
2023-01-03T09:54:20.009Z,100558.09
2023-01-03T09:57:05.565Z,100567.19
2023-01-03T09:59:54.590Z,100568.53
2023-01-03T10:02:49.423Z,100564.69
2023-01-03T10:05:28.320Z,100560.56
2023-01-03T10:08:33.026Z,100565.03
2023-01-03T10:11:07.483Z,100549.22
2023-01-03T10:14:08.377Z,100552.53
2023-01-03T10:17:00.987Z,100548.38
2023-01-03T10:19:46.796Z,100558.69
2023-01-03T10:22:19.199Z,100568.16
2023-01-03T10:25:21.986Z,100564.47
2023-01-03T10:28:01.134Z,100559.81
2023-01-03T10:30:47.282Z,100562.78
2023-01-03T10:33:39.191Z,100575.41
2023-01-03T10:36:06.190Z,100576.75
2023-01-03T10:38:36.809Z,100589.37
2023-01-03T10:41:31.824Z,100584.50
2023-01-03T10:44:01.269Z,100600.13
2023-01-03T10:46:29.869Z,100607.97
2023-01-03T10:49:29.054Z,100603.94
2023-01-03T10:52:09.095Z,100617.75
2023-01-03T10:54:46.521Z,100611.94
2023-01-03T13:25:41.597Z,100697.47
2023-01-03T13:28:14.785Z,100697.47
2023-01-03T13:30:41.496Z,100689.94
2023-01-03T13:33:11.819Z,100699.09
2023-01-03T13:35:44.613Z,100710.47
2023-01-03T13:38:25.193Z,100706.84
2023-01-03T13:43:46.744Z,100701.22
2023-01-03T13:46:19.915Z,100700.28
2023-01-03T13:49:02.872Z,100707.50
2023-01-03T13:51:47.486Z,100705.69
2023-01-03T13:54:17.262Z,100720.41
2023-01-03T13:56:43.911Z,100732.06
2023-01-03T13:59:42.964Z,100724.75
2023-01-03T14:02:09.995Z,100733.44
2023-01-03T14:05:15.639Z,100735.75
2023-01-03T14:08:00.129Z,100741.75
2023-01-03T14:10:51.516Z,100750.25
2023-01-03T14:13:33.111Z,100749.78
2023-01-03T14:16:28.511Z,100750.62
2023-01-03T14:19:03.334Z,100751.94
2023-01-03T14:22:14.250Z,100753.28
2023-01-03T14:24:57.057Z,100760.59
2023-01-03T14:27:28.232Z,100754.44
2023-01-03T14:29:55.870Z,100768.91
2023-01-03T14:32:34.053Z,100760.09
2023-01-03T14:35:03.121Z,100773.75
2023-01-03T14:37:30.357Z,100772.06
2023-01-03T14:40:02.280Z,100763.44
2023-01-03T14:42:29.350Z,100776.75
2023-01-03T14:44:56.983Z,100765.25
2023-01-03T14:47:31.066Z,100780.56
2023-01-03T14:49:58.211Z,100779.91
2023-01-03T14:52:53.162Z,100763.94
2023-01-03T14:55:25.393Z,100778.91
2023-01-03T14:57:52.771Z,100785.41
2023-01-03T15:00:32.539Z,100796.06
2023-01-03T15:03:02.718Z,100788.56
2023-01-03T15:05:35.294Z,100784.72
2023-01-03T15:08:14.742Z,100783.38
2023-01-03T15:10:47.972Z,100776.06
2023-01-03T15:13:26.376Z,100780.22
2023-01-03T15:15:55.441Z,100779.72
2023-01-03T15:18:28.065Z,100783.03
2023-01-03T15:20:57.385Z,100776.34
2023-01-03T15:23:28.961Z,100788.31
2023-01-03T15:25:55.707Z,100792.16
2023-01-03T15:28:28.302Z,100795.78
2023-01-03T15:31:13.303Z,100794.97
2023-01-03T15:33:41.061Z,100802.25
2023-01-03T15:36:19.220Z,100806.59
2023-01-03T15:38:48.761Z,100804.91
2023-01-03T15:41:38.614Z,100807.91
2023-01-03T15:44:07.018Z,100800.25
2023-01-03T15:46:34.409Z,100805.22
2023-01-03T15:49:03.156Z,100811.53
2023-01-03T15:51:29.904Z,100818.84
2023-01-03T15:53:56.890Z,100810.19
2023-01-03T15:56:36.406Z,100804.19
2023-01-03T15:59:08.739Z,100812.00
2023-01-03T16:01:35.405Z,100813.34
2023-01-03T16:04:02.483Z,100821.50
2023-01-03T16:06:29.207Z,100825.97
2023-01-03T16:08:56.015Z,100808.88
2023-01-03T16:11:33.305Z,100817.84
2023-01-03T16:14:04.837Z,100829.34
2023-01-03T16:16:36.366Z,100822.81
2023-01-03T16:19:05.369Z,100830.81
2023-01-03T16:21:32.766Z,100796.31
2023-01-03T16:23:59.784Z,100823.16
2023-01-03T16:26:26.538Z,100832.09
2023-01-03T16:28:53.553Z,100830.47
2023-01-03T16:31:28.152Z,100826.06
2023-01-03T16:33:55.907Z,100836.25
2023-01-03T16:36:37.343Z,100834.75
2023-01-03T16:39:06.782Z,100844.19
2023-01-03T16:41:33.454Z,100831.34
2023-01-03T16:44:00.154Z,100848.78
2023-01-03T16:46:28.658Z,100842.12
2023-01-03T16:48:58.034Z,100860.75
2023-01-03T16:51:49.883Z,100853.91
2023-01-03T16:54:21.427Z,100860.53
2023-01-03T16:56:48.234Z,100867.81
2023-01-03T16:59:16.186Z,100858.34
2023-01-03T17:01:43.321Z,100874.59
2023-01-03T17:04:10.120Z,100862.59
2023-01-03T17:06:38.746Z,100869.25
2023-01-03T17:09:14.545Z,100871.03
2023-01-03T17:11:44.144Z,100878.66
2023-01-03T17:14:22.372Z,100889.28
2023-01-03T17:16:50.170Z,100873.97
2023-01-03T17:20:01.970Z,100892.72
2023-01-03T17:22:15.951Z,100887.87
2023-01-03T17:24:48.942Z,100882.03
2023-01-03T17:27:25.027Z,100886.81
2023-01-03T17:30:01.470Z,100881.72
2023-01-03T17:32:31.732Z,100887.75
2023-01-03T17:34:58.935Z,100889.84
2023-01-03T17:37:26.227Z,100885.16
2023-01-03T17:39:56.197Z,100900.56
2023-01-03T17:42:24.890Z,100901.84
2023-01-03T17:45:10.818Z,100880.25
2023-01-03T17:47:58.706Z,100901.47
2023-01-03T17:50:27.105Z,100901.09
2023-01-03T17:52:56.282Z,100898.88
2023-01-03T17:55:28.952Z,100882.91
2023-01-03T17:58:00.401Z,100902.97
2023-01-03T18:00:28.620Z,100894.78
2023-01-03T18:02:56.405Z,100910.03
2023-01-03T18:05:28.533Z,100903.19
2023-01-03T18:07:58.950Z,100900.63
2023-01-03T18:10:43.499Z,100908.44
2023-01-03T18:13:19.395Z,100915.97
2023-01-03T18:15:48.787Z,100925.22
2023-01-03T18:18:20.774Z,100912.25
2023-01-03T18:20:48.209Z,100885.53
2023-01-03T18:23:30.743Z,100908.41
2023-01-03T18:26:01.560Z,100914.81
2023-01-03T18:28:29.581Z,100902.84
2023-01-03T18:30:57.844Z,100897.44
2023-01-03T18:33:25.249Z,100907.59
2023-01-03T18:35:53.256Z,100913.88
2023-01-03T18:38:22.945Z,100915.84
2023-01-03T18:40:50.262Z,100896.34
2023-01-03T18:43:19.253Z,100908.50
2023-01-03T18:45:46.363Z,100896.94
2023-01-03T18:48:20.223Z,100917.56
2023-01-03T18:50:57.425Z,100922.19
2023-01-03T18:53:33.080Z,100922.34
2023-01-03T18:56:02.929Z,100914.69
2023-01-03T18:58:39.060Z,100912.16
2023-01-03T19:01:06.801Z,100912.88
2023-01-03T19:03:35.602Z,100916.22
2023-01-03T19:06:03.213Z,100920.16
2023-01-03T19:08:33.143Z,100917.78
2023-01-03T19:11:06.137Z,100917.94
2023-01-03T19:13:50.399Z,100913.75
2023-01-03T19:16:23.050Z,100918.37
2023-01-03T19:18:51.200Z,100907.91
2023-01-03T19:21:19.560Z,100924.06
2023-01-03T19:23:53.720Z,100920.84
2023-01-03T19:26:35.230Z,100924.66
2023-01-03T19:29:07.083Z,100925.63
2023-01-03T19:31:42.244Z,100926.59
2023-01-03T19:34:23.785Z,100921.28
2023-01-03T19:36:51.163Z,100909.91
2023-01-03T19:39:23.987Z,100914.34
2023-01-03T19:42:14.328Z,100932.47
2023-01-03T19:44:41.837Z,100930.81
2023-01-03T19:47:15.124Z,100912.41
2023-01-03T19:49:43.830Z,100933.03
2023-01-03T19:52:11.171Z,100933.31
2023-01-03T19:54:37.817Z,100923.97
2023-01-03T19:57:05.420Z,100917.31
2023-01-03T19:59:35.097Z,100931.53
2023-01-03T20:02:25.631Z,100923.88
2023-01-03T20:04:53.381Z,100921.34
2023-01-03T20:07:20.279Z,100917.03
2023-01-03T20:09:47.227Z,100920.09
2023-01-03T20:12:18.544Z,100915.91
2023-01-03T20:14:49.671Z,100922.06
2023-01-03T20:17:34.289Z,100922.63
2023-01-03T20:20:01.135Z,100921.91
2023-01-03T20:23:03.326Z,100930.16
2023-01-03T20:25:27.129Z,100929.47
2023-01-03T20:27:54.978Z,100920.81
2023-01-03T20:30:24.518Z,100938.09
2023-01-03T20:32:51.340Z,100939.22
2023-01-03T20:38:11.527Z,100943.38
2023-01-03T20:40:39.325Z,100946.31
2023-01-03T20:43:06.145Z,100950.91
2023-01-03T20:45:33.418Z,100945.50
2023-01-03T20:48:00.444Z,100942.25
2023-01-03T20:50:29.038Z,100961.91
2023-01-03T20:52:57.215Z,100959.28
2023-01-03T20:55:26.709Z,100940.59
2023-01-03T20:57:53.563Z,100946.19
2023-01-03T21:00:32.274Z,100951.47
2023-01-03T21:03:00.089Z,100950.78
2023-01-03T21:05:26.885Z,100943.09
2023-01-03T21:08:12.078Z,100947.84
2023-01-03T21:10:42.213Z,100947.28
2023-01-03T21:13:10.501Z,100953.53
2023-01-03T21:15:38.059Z,100958.97
2023-01-03T21:18:06.311Z,100961.19
2023-01-03T21:20:33.462Z,100963.97
2023-01-03T21:23:00.217Z,100958.09
2023-01-03T21:25:33.132Z,100954.91
2023-01-03T21:28:01.571Z,100959.59
2023-01-03T21:30:31.048Z,100973.09
2023-01-03T21:32:59.560Z,100972.69
2023-01-03T21:35:27.181Z,100969.50
2023-01-03T21:37:54.889Z,100972.25
2023-01-03T21:40:27.074Z,100970.72
2023-01-03T21:43:03.737Z,100968.87
2023-01-03T21:45:32.669Z,100964.00
2023-01-03T21:48:02.103Z,100962.47
2023-01-03T21:50:30.081Z,100972.22
2023-01-03T21:52:57.209Z,100968.03
2023-01-03T21:55:25.141Z,100970.81
2023-01-03T21:57:52.215Z,100955.75
2023-01-03T22:00:19.288Z,100967.72
2023-01-03T22:03:05.148Z,100963.41
2023-01-03T22:05:32.410Z,100966.31
2023-01-03T22:08:01.416Z,100964.06
2023-01-03T22:10:30.289Z,100964.06
2023-01-03T22:13:02.736Z,100975.75
2023-01-03T22:15:29.761Z,100971.72
2023-01-03T22:17:57.286Z,100962.09
2023-01-03T22:20:25.648Z,100954.28
2023-01-03T22:22:53.292Z,100975.84
2023-01-03T22:25:22.895Z,100964.84
2023-01-03T22:27:50.057Z,100978.19
2023-01-03T22:30:19.115Z,100981.91
2023-01-03T22:32:46.876Z,100984.81
2023-01-03T22:35:15.851Z,100986.34
2023-01-03T22:37:43.000Z,100989.25
2023-01-03T22:40:15.670Z,100982.56
2023-01-03T22:42:42.430Z,100995.06
2023-01-03T22:45:10.597Z,100985.59
2023-01-03T22:47:38.427Z,100985.87
2023-01-03T22:50:07.413Z,100991.41
2023-01-03T22:52:39.527Z,100995.12
2023-01-03T22:55:07.676Z,100995.25
2023-01-03T22:57:34.754Z,100983.00
2023-01-03T23:00:01.672Z,100990.38
2023-01-03T23:02:29.273Z,100994.09
2023-01-03T23:04:56.485Z,100987.25
2023-01-03T23:07:23.163Z,100985.72
2023-01-03T23:09:49.774Z,100983.13
2023-01-03T23:12:35.480Z,100991.41
2023-01-03T23:15:02.458Z,101000.41
2023-01-03T23:17:48.210Z,100994.53
2023-01-03T23:20:14.901Z,100999.09
2023-01-03T23:22:43.733Z,100985.84
2023-01-03T23:25:10.377Z,100996.03
2023-01-03T23:27:37.117Z,101000.56
2023-01-03T23:30:04.531Z,101001.94
2023-01-03T23:32:32.404Z,101005.53
2023-01-03T23:34:59.095Z,101002.91
2023-01-03T23:37:27.054Z,100994.28
2023-01-03T23:39:53.781Z,100966.53
2023-01-03T23:42:20.427Z,101003.53
2023-01-03T23:44:47.481Z,100996.25
2023-01-03T23:47:14.151Z,100996.00
2023-01-03T23:49:40.825Z,101008.31
2023-01-03T23:52:08.005Z,101009.31
2023-01-03T23:54:35.201Z,100994.47
2023-01-03T23:57:01.920Z,101017.47
2023-01-03T23:59:28.821Z,101004.19
